sensor_id;sensor_type;location;lat;lon;timestamp;P1;durP1;ratioP1;P2;durP2;ratioP2
21731;SDS011;11028;51.156;17.130;2023-04-01T00:05:37;5.53;;;2.95;;
21731;SDS011;11028;51.156;17.130;2023-04-01T00:12:57;7.40;;;3.42;;
21731;SDS011;11028;51.156;17.130;2023-04-01T00:20:16;6.32;;;3.88;;
21731;SDS011;11028;51.156;17.130;2023-04-01T00:27:34;7.30;;;4.50;;
21731;SDS011;11028;51.156;17.130;2023-04-01T00:34:54;6.28;;;4.32;;
21731;SDS011;11028;51.156;17.130;2023-04-01T00:42:13;7.93;;;5.32;;
21731;SDS011;11028;51.156;17.130;2023-04-01T00:49:32;10.25;;;5.70;;
21731;SDS011;11028;51.156;17.130;2023-04-01T00:56:55;11.30;;;6.45;;
21731;SDS011;11028;51.156;17.130;2023-04-01T01:11:41;10.13;;;6.35;;
21731;SDS011;11028;51.156;17.130;2023-04-01T01:19:06;10.30;;;6.07;;
21731;SDS011;11028;51.156;17.130;2023-04-01T01:26:34;11.73;;;7.53;;
21731;SDS011;11028;51.156;17.130;2023-04-01T01:34:16;12.23;;;7.85;;
21731;SDS011;11028;51.156;17.130;2023-04-01T01:41:39;9.77;;;7.35;;
21731;SDS011;11028;51.156;17.130;2023-04-01T01:48:59;13.30;;;8.13;;
21731;SDS011;11028;51.156;17.130;2023-04-01T01:56:18;12.52;;;7.38;;
21731;SDS011;11028;51.156;17.130;2023-04-01T02:03:39;13.85;;;8.25;;
21731;SDS011;11028;51.156;17.130;2023-04-01T02:11:00;10.75;;;7.22;;
21731;SDS011;11028;51.156;17.130;2023-04-01T02:18:28;11.85;;;7.15;;
21731;SDS011;11028;51.156;17.130;2023-04-01T02:25:49;9.88;;;6.75;;
21731;SDS011;11028;51.156;17.130;2023-04-01T02:33:08;11.32;;;7.30;;
21731;SDS011;11028;51.156;17.130;2023-04-01T02:40:26;13.27;;;6.30;;
21731;SDS011;11028;51.156;17.130;2023-04-01T02:47:46;8.45;;;5.60;;
21731;SDS011;11028;51.156;17.130;2023-04-01T02:55:05;9.55;;;5.35;;
21731;SDS011;11028;51.156;17.130;2023-04-01T03:02:24;8.38;;;5.15;;
21731;SDS011;11028;51.156;17.130;2023-04-01T03:09:44;11.77;;;4.43;;
21731;SDS011;11028;51.156;17.130;2023-04-01T03:17:02;4.93;;;3.58;;
21731;SDS011;11028;51.156;17.130;2023-04-01T03:24:22;5.45;;;3.28;;
21731;SDS011;11028;51.156;17.130;2023-04-01T03:31:41;5.15;;;3.17;;
21731;SDS011;11028;51.156;17.130;2023-04-01T03:39:00;5.75;;;3.25;;
21731;SDS011;11028;51.156;17.130;2023-04-01T03:46:28;5.60;;;3.85;;
21731;SDS011;11028;51.156;17.130;2023-04-01T03:53:48;7.32;;;3.45;;
21731;SDS011;11028;51.156;17.130;2023-04-01T04:01:13;6.13;;;3.97;;
21731;SDS011;11028;51.156;17.130;2023-04-01T04:08:32;5.63;;;3.92;;
21731;SDS011;11028;51.156;17.130;2023-04-01T04:15:52;7.22;;;4.13;;
21731;SDS011;11028;51.156;17.130;2023-04-01T04:23:10;8.02;;;3.85;;
21731;SDS011;11028;51.156;17.130;2023-04-01T04:30:30;6.72;;;3.83;;
21731;SDS011;11028;51.156;17.130;2023-04-01T04:37:49;6.45;;;4.13;;
21731;SDS011;11028;51.156;17.130;2023-04-01T04:45:08;9.88;;;4.57;;
21731;SDS011;11028;51.156;17.130;2023-04-01T04:52:36;5.90;;;3.90;;
21731;SDS011;11028;51.156;17.130;2023-04-01T04:59:56;5.05;;;4.00;;
21731;SDS011;11028;51.156;17.130;2023-04-01T05:07:34;6.68;;;4.18;;
21731;SDS011;11028;51.156;17.130;2023-04-01T05:14:52;8.55;;;4.05;;
21731;SDS011;11028;51.156;17.130;2023-04-01T05:22:12;7.05;;;3.83;;
21731;SDS011;11028;51.156;17.130;2023-04-01T05:29:32;6.78;;;4.13;;
21731;SDS011;11028;51.156;17.130;2023-04-01T05:36:59;6.88;;;4.28;;
21731;SDS011;11028;51.156;17.130;2023-04-01T05:44:19;8.25;;;4.00;;
21731;SDS011;11028;51.156;17.130;2023-04-01T05:51:38;5.70;;;3.90;;
21731;SDS011;11028;51.156;17.130;2023-04-01T05:58:57;5.97;;;4.32;;
21731;SDS011;11028;51.156;17.130;2023-04-01T06:06:18;6.70;;;4.63;;
21731;SDS011;11028;51.156;17.130;2023-04-01T06:13:53;9.90;;;4.93;;
21731;SDS011;11028;51.156;17.130;2023-04-01T06:21:27;9.60;;;5.20;;
21731;SDS011;11028;51.156;17.130;2023-04-01T06:29:03;12.18;;;6.38;;
21731;SDS011;11028;51.156;17.130;2023-04-01T06:36:38;10.63;;;5.82;;
21731;SDS011;11028;51.156;17.130;2023-04-01T06:44:05;10.40;;;5.72;;
21731;SDS011;11028;51.156;17.130;2023-04-01T06:52:10;11.73;;;5.68;;
21731;SDS011;11028;51.156;17.130;2023-04-01T06:59:54;8.75;;;5.38;;
21731;SDS011;11028;51.156;17.130;2023-04-01T07:07:19;10.13;;;6.20;;
21731;SDS011;11028;51.156;17.130;2023-04-01T07:14:48;8.30;;;6.17;;
21731;SDS011;11028;51.156;17.130;2023-04-01T07:22:14;8.55;;;6.25;;
21731;SDS011;11028;51.156;17.130;2023-04-01T07:30:13;14.25;;;7.15;;
21731;SDS011;11028;51.156;17.130;2023-04-01T07:37:36;12.00;;;7.20;;
21731;SDS011;11028;51.156;17.130;2023-04-01T07:44:59;10.43;;;7.38;;
21731;SDS011;11028;51.156;17.130;2023-04-01T07:52:25;18.17;;;10.00;;
21731;SDS011;11028;51.156;17.130;2023-04-01T08:00:04;12.70;;;7.88;;
21731;SDS011;11028;51.156;17.130;2023-04-01T08:07:40;12.25;;;8.02;;
21731;SDS011;11028;51.156;17.130;2023-04-01T08:15:34;10.13;;;6.68;;
21731;SDS011;11028;51.156;17.130;2023-04-01T08:23:16;10.05;;;5.53;;
21731;SDS011;11028;51.156;17.130;2023-04-01T08:30:40;7.47;;;5.35;;
21731;SDS011;11028;51.156;17.130;2023-04-01T08:38:07;9.90;;;5.00;;
21731;SDS011;11028;51.156;17.130;2023-04-01T08:45:33;8.93;;;5.50;;
21731;SDS011;11028;51.156;17.130;2023-04-01T08:53:15;8.70;;;5.25;;
21731;SDS011;11028;51.156;17.130;2023-04-01T09:00:40;8.43;;;5.22;;
21731;SDS011;11028;51.156;17.130;2023-04-01T09:08:20;9.27;;;5.25;;
21731;SDS011;11028;51.156;17.130;2023-04-01T09:15:53;7.80;;;4.22;;
21731;SDS011;11028;51.156;17.130;2023-04-01T09:23:43;11.48;;;5.43;;
21731;SDS011;11028;51.156;17.130;2023-04-01T09:31:17;11.20;;;5.38;;
21731;SDS011;11028;51.156;17.130;2023-04-01T09:39:15;8.68;;;4.45;;
21731;SDS011;11028;51.156;17.130;2023-04-01T09:46:48;7.57;;;4.35;;
21731;SDS011;11028;51.156;17.130;2023-04-01T09:54:20;2.58;;;1.77;;
21731;SDS011;11028;51.156;17.130;2023-04-01T10:01:57;6.22;;;3.08;;
21731;SDS011;11028;51.156;17.130;2023-04-01T10:17:35;11.00;;;6.80;;
21731;SDS011;11028;51.156;17.130;2023-04-01T10:25:19;8.95;;;5.93;;
21731;SDS011;11028;51.156;17.130;2023-04-01T10:33:10;9.38;;;6.18;;
21731;SDS011;11028;51.156;17.130;2023-04-01T10:57:07;4.88;;;4.10;;
21731;SDS011;11028;51.156;17.130;2023-04-01T11:29:15;5.90;;;3.80;;
21731;SDS011;11028;51.156;17.130;2023-04-01T11:37:23;5.72;;;4.30;;
21731;SDS011;11028;51.156;17.130;2023-04-01T11:45:29;3.80;;;2.95;;
21731;SDS011;11028;51.156;17.130;2023-04-01T11:53:15;4.25;;;2.92;;
21731;SDS011;11028;51.156;17.130;2023-04-01T12:01:01;3.78;;;3.28;;
21731;SDS011;11028;51.156;17.130;2023-04-01T12:08:28;3.85;;;2.75;;
21731;SDS011;11028;51.156;17.130;2023-04-01T12:15:59;5.70;;;4.18;;
21731;SDS011;11028;51.156;17.130;2023-04-01T12:23:48;4.60;;;3.40;;
21731;SDS011;11028;51.156;17.130;2023-04-01T12:31:18;6.07;;;4.07;;
21731;SDS011;11028;51.156;17.130;2023-04-01T12:38:44;4.15;;;2.90;;
21731;SDS011;11028;51.156;17.130;2023-04-01T12:46:12;4.82;;;3.53;;
21731;SDS011;11028;51.156;17.130;2023-04-01T12:53:36;5.25;;;2.80;;
21731;SDS011;11028;51.156;17.130;2023-04-01T13:01:13;3.38;;;2.58;;
21731;SDS011;11028;51.156;17.130;2023-04-01T13:08:41;3.50;;;2.58;;
21731;SDS011;11028;51.156;17.130;2023-04-01T13:16:02;3.95;;;2.85;;
21731;SDS011;11028;51.156;17.130;2023-04-01T13:23:28;5.30;;;3.10;;
21731;SDS011;11028;51.156;17.130;2023-04-01T13:30:58;6.40;;;2.30;;
21731;SDS011;11028;51.156;17.130;2023-04-01T13:46:04;3.72;;;2.55;;
21731;SDS011;11028;51.156;17.130;2023-04-01T13:53:44;2.97;;;2.20;;
21731;SDS011;11028;51.156;17.130;2023-04-01T14:01:15;2.47;;;1.98;;
21731;SDS011;11028;51.156;17.130;2023-04-01T14:08:44;3.10;;;2.53;;
21731;SDS011;11028;51.156;17.130;2023-04-01T14:32:10;3.45;;;3.08;;
21731;SDS011;11028;51.156;17.130;2023-04-01T14:39:42;17.33;;;8.70;;
21731;SDS011;11028;51.156;17.130;2023-04-01T14:47:11;10.15;;;4.40;;
21731;SDS011;11028;51.156;17.130;2023-04-01T14:54:41;52.30;;;29.70;;
21731;SDS011;11028;51.156;17.130;2023-04-01T15:02:03;11.98;;;6.47;;
21731;SDS011;11028;51.156;17.130;2023-04-01T15:09:33;9.20;;;5.00;;
21731;SDS011;11028;51.156;17.130;2023-04-01T15:17:01;7.03;;;4.60;;
21731;SDS011;11028;51.156;17.130;2023-04-01T15:24:35;14.07;;;9.10;;
21731;SDS011;11028;51.156;17.130;2023-04-01T15:31:59;17.73;;;10.60;;
21731;SDS011;11028;51.156;17.130;2023-04-01T15:39:22;15.75;;;10.20;;
21731;SDS011;11028;51.156;17.130;2023-04-01T15:46:44;33.08;;;18.88;;
21731;SDS011;11028;51.156;17.130;2023-04-01T16:02:10;19.05;;;10.55;;
21731;SDS011;11028;51.156;17.130;2023-04-01T16:09:39;15.10;;;9.98;;
21731;SDS011;11028;51.156;17.130;2023-04-01T16:24:45;23.35;;;13.88;;
21731;SDS011;11028;51.156;17.130;2023-04-01T16:32:18;25.60;;;12.95;;
21731;SDS011;11028;51.156;17.130;2023-04-01T16:39:44;18.58;;;12.23;;
21731;SDS011;11028;51.156;17.130;2023-04-01T16:47:06;25.08;;;15.88;;
21731;SDS011;11028;51.156;17.130;2023-04-01T16:54:28;43.50;;;23.40;;
21731;SDS011;11028;51.156;17.130;2023-04-01T17:01:52;42.90;;;26.55;;
21731;SDS011;11028;51.156;17.130;2023-04-01T17:09:15;29.98;;;17.23;;
21731;SDS011;11028;51.156;17.130;2023-04-01T17:16:46;26.05;;;15.27;;
21731;SDS011;11028;51.156;17.130;2023-04-01T17:24:19;25.80;;;15.85;;
21731;SDS011;11028;51.156;17.130;2023-04-01T17:31:45;30.92;;;18.52;;
21731;SDS011;11028;51.156;17.130;2023-04-01T17:39:10;36.95;;;20.10;;
21731;SDS011;11028;51.156;17.130;2023-04-01T17:50:27;41.63;;;21.52;;
21731;SDS011;11028;51.156;17.130;2023-04-01T18:05:15;46.20;;;25.10;;
21731;SDS011;11028;51.156;17.130;2023-04-01T18:12:40;42.15;;;24.63;;
21731;SDS011;11028;51.156;17.130;2023-04-01T18:20:07;52.40;;;27.70;;
21731;SDS011;11028;51.156;17.130;2023-04-01T18:27:30;48.40;;;26.90;;
21731;SDS011;11028;51.156;17.130;2023-04-01T18:34:53;52.72;;;26.95;;
21731;SDS011;11028;51.156;17.130;2023-04-01T18:42:14;52.70;;;27.85;;
21731;SDS011;11028;51.156;17.130;2023-04-01T18:49:39;50.27;;;27.83;;
21731;SDS011;11028;51.156;17.130;2023-04-01T18:57:04;47.92;;;25.65;;
21731;SDS011;11028;51.156;17.130;2023-04-01T19:04:28;51.25;;;26.23;;
21731;SDS011;11028;51.156;17.130;2023-04-01T19:11:51;46.80;;;24.58;;
21731;SDS011;11028;51.156;17.130;2023-04-01T19:19:19;47.88;;;26.52;;
21731;SDS011;11028;51.156;17.130;2023-04-01T19:26:43;54.97;;;27.38;;
21731;SDS011;11028;51.156;17.130;2023-04-01T19:34:07;54.45;;;28.33;;
21731;SDS011;11028;51.156;17.130;2023-04-01T19:41:31;48.33;;;26.70;;
21731;SDS011;11028;51.156;17.130;2023-04-01T19:48:55;49.42;;;26.40;;
21731;SDS011;11028;51.156;17.130;2023-04-01T19:56:21;50.80;;;26.13;;
21731;SDS011;11028;51.156;17.130;2023-04-01T20:03:42;55.33;;;29.38;;
21731;SDS011;11028;51.156;17.130;2023-04-01T20:11:07;49.80;;;28.60;;
21731;SDS011;11028;51.156;17.130;2023-04-01T20:18:33;57.05;;;30.63;;
21731;SDS011;11028;51.156;17.130;2023-04-01T20:25:54;52.05;;;28.85;;
21731;SDS011;11028;51.156;17.130;2023-04-01T20:33:20;57.55;;;31.20;;
21731;SDS011;11028;51.156;17.130;2023-04-01T20:40:42;52.78;;;29.05;;
21731;SDS011;11028;51.156;17.130;2023-04-01T20:48:14;56.78;;;31.00;;
21731;SDS011;11028;51.156;17.130;2023-04-01T21:03:15;57.17;;;32.45;;
21731;SDS011;11028;51.156;17.130;2023-04-01T21:19:45;62.15;;;32.35;;
21731;SDS011;11028;51.156;17.130;2023-04-01T21:27:07;58.70;;;29.80;;
21731;SDS011;11028;51.156;17.130;2023-04-01T21:34:31;59.40;;;30.98;;
21731;SDS011;11028;51.156;17.130;2023-04-01T21:41:59;59.58;;;29.15;;
21731;SDS011;11028;51.156;17.130;2023-04-01T22:06:09;55.90;;;28.83;;
21731;SDS011;11028;51.156;17.130;2023-04-01T22:13:30;50.88;;;28.92;;
21731;SDS011;11028;51.156;17.130;2023-04-01T22:20:52;51.95;;;28.30;;
21731;SDS011;11028;51.156;17.130;2023-04-01T22:28:24;47.72;;;27.02;;
21731;SDS011;11028;51.156;17.130;2023-04-01T22:35:46;52.38;;;28.40;;
21731;SDS011;11028;51.156;17.130;2023-04-01T22:43:08;44.83;;;26.98;;
21731;SDS011;11028;51.156;17.130;2023-04-01T22:50:31;41.28;;;22.88;;
21731;SDS011;11028;51.156;17.130;2023-04-01T23:06:57;24.10;;;15.30;;
21731;SDS011;11028;51.156;17.130;2023-04-01T23:21:50;28.98;;;17.95;;
21731;SDS011;11028;51.156;17.130;2023-04-01T23:29:12;26.05;;;17.17;;
21731;SDS011;11028;51.156;17.130;2023-04-01T23:36:31;29.90;;;17.67;;
21731;SDS011;11028;51.156;17.130;2023-04-01T23:51:16;31.08;;;17.42;;
